Time;durP1;ratioP1;P1;durP2;ratioP2;P2;SDS_P1;SDS_P2;PMS_P1;PMS_P2;Temp;Humidity;BMP_temperature;BMP_pressure;BME280_temperature;BME280_humidity;BME280_pressure;Samples;Min_cycle;Max_cycle;Signal;HPM_P1;HPM_P2
2023/03/09 00:01:40;;;;;;;5.85;2.95;;;5.10;99.90;;;;;;4984654;28;20250;-70
2023/03/09 00:04:12;;;;;;;3.42;2.30;;;5.10;99.90;;;;;;4999573;28;20292;-70
2023/03/09 00:06:41;;;;;;;2.63;2.10;;;5.10;99.90;;;;;;4984752;28;20221;-69
2023/03/09 00:09:10;;;;;;;2.38;2.05;;;5.10;99.90;;;;;;4989210;28;20217;-70
2023/03/09 00:11:41;;;;;;;2.88;2.30;;;5.10;99.90;;;;;;5002059;28;20344;-70
2023/03/09 00:14:09;;;;;;;3.38;2.55;;;5.10;99.90;;;;;;4981010;28;20668;-68
2023/03/09 00:16:40;;;;;;;3.03;1.95;;;5.10;99.90;;;;;;4995682;28;20315;-69
2023/03/09 00:19:08;;;;;;;2.65;2.10;;;5.10;99.90;;;;;;5002395;28;20740;-70
2023/03/09 00:21:39;;;;;;;2.75;2.35;;;5.10;99.90;;;;;;4997702;28;20673;-69
2023/03/09 00:24:10;;;;;;;2.83;2.53;;;5.10;99.90;;;;;;5002100;28;20259;-69
2023/03/09 00:26:40;;;;;;;2.70;2.50;;;5.10;99.90;;;;;;4977030;28;20291;-75
2023/03/09 00:29:12;;;;;;;2.33;2.13;;;5.10;99.90;;;;;;4986789;28;20352;-74
2023/03/09 00:31:43;;;;;;;3.30;2.85;;;5.10;99.90;;;;;;4984777;28;20493;-74
2023/03/09 00:34:13;;;;;;;2.65;2.20;;;5.10;99.90;;;;;;4986855;28;20331;-75
2023/03/09 00:36:41;;;;;;;5.72;4.30;;;5.10;99.90;;;;;;4981944;28;20217;-75
2023/03/09 00:39:11;;;;;;;3.92;3.00;;;5.10;99.90;;;;;;5001538;28;20694;-75
2023/03/09 00:41:40;;;;;;;6.75;4.68;;;5.10;99.90;;;;;;4985703;28;20208;-77
2023/03/09 00:44:09;;;;;;;3.65;2.60;;;5.10;99.90;;;;;;5002845;28;20239;-76
2023/03/09 00:46:37;;;;;;;3.50;3.20;;;5.10;99.90;;;;;;5003352;28;20209;-76
2023/03/09 00:49:07;;;;;;;3.58;3.00;;;5.10;99.90;;;;;;5001647;28;20535;-74
2023/03/09 00:51:37;;;;;;;3.08;2.78;;;5.10;99.90;;;;;;4989543;28;20205;-75
2023/03/09 00:54:06;;;;;;;2.40;2.20;;;5.10;99.90;;;;;;5000515;28;20216;-76
2023/03/09 00:56:35;;;;;;;4.05;3.17;;;5.10;99.90;;;;;;5002058;28;20230;-75
2023/03/09 00:59:03;;;;;;;2.38;2.17;;;5.10;99.90;;;;;;4985801;28;20220;-76
2023/03/09 01:01:32;;;;;;;3.13;2.83;;;5.10;99.90;;;;;;4988458;28;20204;-75
2023/03/09 01:04:01;;;;;;;2.83;2.40;;;5.10;99.90;;;;;;5002899;28;20200;-75
2023/03/09 01:06:31;;;;;;;2.85;2.20;;;5.10;99.90;;;;;;5001985;28;20227;-75
2023/03/09 01:09:00;;;;;;;3.90;2.85;;;5.10;99.90;;;;;;4987547;28;20371;-75
2023/03/09 01:11:28;;;;;;;3.38;2.30;;;5.10;99.90;;;;;;4997091;28;20194;-74
2023/03/09 01:13:56;;;;;;;3.30;2.55;;;5.10;99.90;;;;;;4992780;28;20636;-76
2023/03/09 01:16:25;;;;;;;2.78;2.10;;;5.10;99.90;;;;;;4995041;28;20287;-75
2023/03/09 01:18:53;;;;;;;2.40;2.03;;;5.10;99.90;;;;;;4995088;28;20587;-75
2023/03/09 01:21:22;;;;;;;2.60;2.20;;;5.10;99.90;;;;;;4996074;28;20196;-76
2023/03/09 01:23:51;;;;;;;2.13;1.90;;;5.10;99.90;;;;;;5001429;28;20970;-74
2023/03/09 01:26:20;;;;;;;3.38;2.30;;;5.10;99.90;;;;;;4991278;28;20351;-74
2023/03/09 01:28:48;;;;;;;3.42;2.50;;;5.10;99.90;;;;;;5001148;28;20260;-75
2023/03/09 01:31:17;;;;;;;2.85;1.95;;;5.10;99.90;;;;;;4981039;28;20260;-76
2023/03/09 01:33:48;;;;;;;2.85;2.42;;;5.10;99.90;;;;;;4996770;28;20639;-75
2023/03/09 01:36:19;;;;;;;3.63;2.85;;;5.10;99.90;;;;;;4993398;28;20722;-78
2023/03/09 01:38:48;;;;;;;3.38;2.20;;;5.10;99.90;;;;;;4978103;28;20223;-74
2023/03/09 01:41:19;;;;;;;2.90;2.60;;;5.10;99.90;;;;;;4981396;28;20465;-75
2023/03/09 01:43:49;;;;;;;3.30;2.13;;;5.10;99.90;;;;;;4974683;28;20216;-75
2023/03/09 01:46:40;;;;;;;3.45;2.40;;;5.10;99.90;;;;;;4977962;28;20256;-75
2023/03/09 01:49:35;;;;;;;2.58;1.73;;;5.10;99.90;;;;;;4999522;28;20221;-76
2023/03/09 01:52:10;;;;;;;2.00;1.80;;;5.10;99.90;;;;;;4999457;28;20539;-75
2023/03/09 01:54:43;;;;;;;2.90;2.05;;;5.10;99.90;;;;;;4983063;28;20196;-77
2023/03/09 01:57:19;;;;;;;2.97;1.98;;;5.10;99.90;;;;;;4998221;28;20231;-75
2023/03/09 01:59:49;;;;;;;2.40;2.00;;;5.10;99.90;;;;;;4995752;28;20717;-76
2023/03/09 02:02:20;;;;;;;2.20;2.00;;;5.10;99.90;;;;;;5000869;28;20459;-76
2023/03/09 02:04:51;;;;;;;2.53;1.77;;;5.10;99.90;;;;;;4996596;28;20666;-76
2023/03/09 02:07:23;;;;;;;2.10;1.80;;;5.10;99.90;;;;;;4966223;28;20694;-75
2023/03/09 02:09:55;;;;;;;2.03;1.77;;;5.10;99.90;;;;;;4978205;28;20214;-74
2023/03/09 02:12:26;;;;;;;2.55;1.80;;;5.10;99.90;;;;;;4996881;28;20606;-75
2023/03/09 02:14:54;;;;;;;2.80;2.47;;;5.10;99.90;;;;;;4986639;28;20676;-76
2023/03/09 02:17:23;;;;;;;2.63;2.42;;;5.10;99.90;;;;;;4990008;28;20252;-76
2023/03/09 02:20:14;;;;;;;2.03;1.60;;;5.10;99.90;;;;;;4999222;28;20203;-75
2023/03/09 02:22:45;;;;;;;2.75;1.80;;;5.10;99.90;;;;;;4996138;28;20245;-75
2023/03/09 02:25:22;;;;;;;2.35;1.90;;;5.10;99.90;;;;;;4999632;28;20603;-75
2023/03/09 02:27:53;;;;;;;3.35;2.45;;;5.10;99.90;;;;;;4971571;28;20260;-75
2023/03/09 02:30:23;;;;;;;2.30;1.92;;;5.10;99.90;;;;;;4998688;28;20213;-75
2023/03/09 02:33:01;;;;;;;4.15;2.35;;;5.10;99.90;;;;;;4999046;28;20239;-76
2023/03/09 02:35:30;;;;;;;2.55;2.30;;;5.10;99.90;;;;;;4977087;28;20207;-76
2023/03/09 02:37:58;;;;;;;3.45;2.15;;;5.10;99.90;;;;;;4989429;28;20232;-76
2023/03/09 02:40:31;;;;;;;3.30;2.38;;;5.10;99.90;;;;;;4985823;28;20244;-75
2023/03/09 02:43:05;;;;;;;2.88;2.60;;;5.10;99.90;;;;;;4996264;28;20225;-76
2023/03/09 02:45:34;;;;;;;3.38;2.40;;;5.10;99.90;;;;;;4989782;28;20205;-75
2023/03/09 02:48:05;;;;;;;3.55;2.35;;;5.10;99.90;;;;;;4998627;28;20239;-75
2023/03/09 02:50:33;;;;;;;3.25;2.22;;;5.10;99.90;;;;;;4998779;28;20220;-75
2023/03/09 02:53:02;;;;;;;2.88;2.33;;;5.10;99.90;;;;;;4993196;28;20228;-74
2023/03/09 02:55:33;;;;;;;4.03;2.80;;;5.10;99.90;;;;;;5000965;28;20260;-75
2023/03/09 02:58:05;;;;;;;3.38;2.25;;;5.10;99.90;;;;;;4984682;28;20234;-75
2023/03/09 03:00:34;;;;;;;2.70;2.30;;;5.10;99.90;;;;;;4998531;28;20194;-74
2023/03/09 03:03:03;;;;;;;3.10;2.80;;;5.10;99.90;;;;;;4994583;28;20228;-75
2023/03/09 03:05:32;;;;;;;3.65;2.30;;;5.10;99.90;;;;;;4999940;28;20691;-74
2023/03/09 03:08:01;;;;;;;4.18;3.08;;;5.10;99.90;;;;;;4981260;28;20231;-76
2023/03/09 03:10:30;;;;;;;5.20;3.78;;;5.10;99.90;;;;;;4982348;28;20728;-76
2023/03/09 03:12:59;;;;;;;5.32;3.38;;;5.10;99.90;;;;;;5005236;28;20677;-75
2023/03/09 03:15:28;;;;;;;3.35;2.35;;;5.10;99.90;;;;;;4992199;28;20629;-74
2023/03/09 03:17:57;;;;;;;2.65;2.40;;;5.10;99.90;;;;;;4996961;28;20225;-75
2023/03/09 03:20:26;;;;;;;2.75;2.47;;;5.10;99.90;;;;;;5005232;28;20194;-76
2023/03/09 03:22:55;;;;;;;3.58;2.97;;;5.10;99.90;;;;;;4986833;28;20890;-75
2023/03/09 03:25:31;;;;;;;3.63;2.47;;;5.10;99.90;;;;;;5002984;28;20656;-75
2023/03/09 03:28:02;;;;;;;4.00;2.95;;;5.10;99.90;;;;;;5003007;28;20577;-75
2023/03/09 03:30:33;;;;;;;4.47;3.42;;;5.10;99.90;;;;;;4995758;28;20749;-76
2023/03/09 03:33:02;;;;;;;3.88;3.03;;;5.10;99.90;;;;;;4993176;28;20223;-74
2023/03/09 03:35:33;;;;;;;2.97;2.50;;;5.10;99.90;;;;;;5003861;28;20730;-75
2023/03/09 03:38:02;;;;;;;4.90;2.88;;;5.10;99.90;;;;;;5003281;28;20224;-75
2023/03/09 03:40:32;;;;;;;4.38;2.92;;;5.10;99.90;;;;;;4983314;28;20239;-74
2023/03/09 03:43:04;;;;;;;4.57;2.78;;;5.10;99.90;;;;;;5004322;28;20739;-76
2023/03/09 03:45:34;;;;;;;4.40;3.50;;;5.10;99.90;;;;;;5002470;28;20246;-74
2023/03/09 03:48:03;;;;;;;5.22;3.25;;;5.10;99.90;;;;;;5002831;28;20231;-75
2023/03/09 03:50:34;;;;;;;5.03;3.65;;;5.10;99.90;;;;;;5006057;28;20299;-75
2023/03/09 03:53:04;;;;;;;5.50;3.35;;;5.10;99.90;;;;;;5001349;28;20258;-76
2023/03/09 03:55:33;;;;;;;4.57;3.28;;;5.10;99.90;;;;;;4996312;28;20221;-75
2023/03/09 03:58:03;;;;;;;4.45;3.38;;;5.10;99.90;;;;;;5002725;28;20225;-74
2023/03/09 04:00:34;;;;;;;7.80;4.75;;;5.10;99.90;;;;;;4989021;28;20208;-75
2023/03/09 04:03:07;;;;;;;6.18;4.22;;;5.10;99.90;;;;;;4985375;28;20252;-75
2023/03/09 04:05:40;;;;;;;7.35;5.50;;;5.10;99.90;;;;;;4994366;28;20280;-76
2023/03/09 04:08:09;;;;;;;8.73;5.35;;;5.10;99.90;;;;;;5000389;28;20237;-75
2023/03/09 04:10:39;;;;;;;5.30;4.00;;;5.10;99.90;;;;;;4999573;28;20214;-76
2023/03/09 04:13:10;;;;;;;6.88;4.80;;;5.10;99.90;;;;;;4996325;28;20235;-75
2023/03/09 04:15:42;;;;;;;7.07;4.60;;;5.10;99.90;;;;;;4987676;28;20503;-76
2023/03/09 04:18:10;;;;;;;6.85;4.80;;;5.10;99.90;;;;;;4988114;28;20232;-75
2023/03/09 04:20:40;;;;;;;7.28;4.80;;;5.10;99.90;;;;;;4999808;28;20208;-75
2023/03/09 04:23:09;;;;;;;7.13;5.80;;;5.10;99.90;;;;;;4996346;28;20231;-75
2023/03/09 04:25:42;;;;;;;8.65;5.72;;;5.00;99.90;;;;;;4992025;28;20220;-75
2023/03/09 04:28:11;;;;;;;5.72;4.47;;;5.00;99.90;;;;;;4997794;28;20228;-75
2023/03/09 04:30:46;;;;;;;4.13;3.67;;;5.00;99.90;;;;;;4999200;28;20709;-76
2023/03/09 04:33:15;;;;;;;8.63;5.20;;;5.10;99.90;;;;;;4991338;28;20240;-75
2023/03/09 04:35:43;;;;;;;5.80;4.65;;;5.10;99.90;;;;;;4995829;28;20193;-75
2023/03/09 04:38:19;;;;;;;5.07;4.57;;;5.00;99.90;;;;;;4986414;28;20216;-74
2023/03/09 04:40:50;;;;;;;5.00;3.58;;;5.10;99.90;;;;;;4996525;28;20198;-75
2023/03/09 04:43:18;;;;;;;5.70;3.83;;;5.00;99.90;;;;;;5000610;28;20231;-75
2023/03/09 04:45:48;;;;;;;4.55;3.50;;;5.10;99.90;;;;;;4975614;28;20196;-75
2023/03/09 04:48:17;;;;;;;5.40;3.47;;;5.10;99.90;;;;;;4994415;28;20232;-75
2023/03/09 04:50:47;;;;;;;5.00;3.42;;;5.00;99.90;;;;;;4997606;28;20568;-75
2023/03/09 04:53:15;;;;;;;4.20;3.42;;;5.00;99.90;;;;;;5001862;28;20227;-76
2023/03/09 04:55:46;;;;;;;4.95;3.75;;;5.10;99.90;;;;;;5003968;28;20203;-74
2023/03/09 04:58:16;;;;;;;3.92;3.40;;;5.00;99.90;;;;;;4984102;28;20582;-75
2023/03/09 05:00:44;;;;;;;5.07;3.75;;;5.00;99.90;;;;;;4987744;28;20193;-76
2023/03/09 05:03:17;;;;;;;5.90;5.00;;;5.00;99.90;;;;;;5002294;28;20636;-76
2023/03/09 05:05:50;;;;;;;6.55;4.07;;;5.00;99.90;;;;;;4985775;28;20208;-75
2023/03/09 05:08:21;;;;;;;6.50;4.03;;;5.10;99.90;;;;;;4999563;28;20229;-75
2023/03/09 05:10:49;;;;;;;5.65;4.50;;;5.10;99.90;;;;;;4997573;28;20222;-76
2023/03/09 05:13:19;;;;;;;5.75;4.07;;;5.00;99.90;;;;;;4995531;28;20229;-75
2023/03/09 05:15:49;;;;;;;6.72;3.80;;;5.10;99.90;;;;;;4990215;28;20204;-77
2023/03/09 05:18:18;;;;;;;3.95;2.78;;;5.10;99.90;;;;;;5000981;28;20276;-75
2023/03/09 05:20:49;;;;;;;3.35;2.78;;;5.10;99.90;;;;;;5001850;28;20204;-76
2023/03/09 05:23:17;;;;;;;4.95;2.90;;;5.00;99.90;;;;;;5000939;28;20243;-76
2023/03/09 05:25:56;;;;;;;3.55;2.75;;;5.10;99.90;;;;;;4968969;28;20209;-75
2023/03/09 05:28:25;;;;;;;3.97;3.22;;;5.00;99.90;;;;;;4994339;28;20336;-74
2023/03/09 05:30:55;;;;;;;3.80;2.72;;;5.00;99.90;;;;;;4992876;28;20209;-77
2023/03/09 05:33:25;;;;;;;3.42;2.95;;;5.00;99.90;;;;;;4980614;28;20228;-75
2023/03/09 05:35:54;;;;;;;3.28;2.88;;;5.10;99.90;;;;;;4982621;28;20237;-76
2023/03/09 05:38:23;;;;;;;6.55;3.05;;;5.10;99.90;;;;;;4992331;28;20728;-75
2023/03/09 05:40:52;;;;;;;3.95;3.10;;;5.00;99.90;;;;;;4999595;28;20204;-75
2023/03/09 05:43:23;;;;;;;4.88;3.10;;;5.10;99.90;;;;;;4994167;28;20300;-75
2023/03/09 05:45:56;;;;;;;4.47;3.05;;;5.10;99.90;;;;;;4997248;28;20205;-76
2023/03/09 05:48:26;;;;;;;3.75;2.70;;;5.10;99.90;;;;;;4988310;28;20220;-76
2023/03/09 05:50:55;;;;;;;3.47;2.50;;;5.00;99.90;;;;;;5001956;28;20685;-76
2023/03/09 05:53:24;;;;;;;4.47;2.80;;;5.10;99.90;;;;;;4997761;28;20234;-76
2023/03/09 05:55:53;;;;;;;3.25;2.80;;;5.00;99.90;;;;;;5001541;28;20200;-76
2023/03/09 05:58:23;;;;;;;3.20;2.65;;;5.10;99.90;;;;;;4992529;28;20311;-75
2023/03/09 06:00:53;;;;;;;3.17;2.28;;;5.10;99.90;;;;;;4999118;28;20201;-74
2023/03/09 06:03:22;;;;;;;4.28;2.97;;;5.00;99.90;;;;;;4985296;28;20229;-76
2023/03/09 06:06:01;;;;;;;4.38;3.00;;;5.00;99.90;;;;;;4985667;28;20192;-75
2023/03/09 06:08:31;;;;;;;3.50;2.70;;;5.10;99.90;;;;;;4988303;28;20434;-75
2023/03/09 06:11:02;;;;;;;4.13;3.13;;;5.00;99.90;;;;;;4985745;28;20185;-74
2023/03/09 06:13:33;;;;;;;3.10;2.45;;;5.00;99.90;;;;;;4992072;28;20221;-77
2023/03/09 06:16:04;;;;;;;3.88;2.72;;;5.00;99.90;;;;;;4991098;28;20247;-75
2023/03/09 06:18:33;;;;;;;3.45;3.15;;;5.00;99.90;;;;;;4997062;28;20228;-75
2023/03/09 06:21:05;;;;;;;2.95;2.15;;;5.00;99.90;;;;;;4998195;28;20577;-75
2023/03/09 06:23:36;;;;;;;2.92;2.10;;;5.00;99.90;;;;;;4978476;28;20229;-75
2023/03/09 06:26:07;;;;;;;3.50;3.20;;;5.00;99.90;;;;;;4985270;28;20259;-76
2023/03/09 06:28:39;;;;;;;3.15;2.50;;;5.00;99.90;;;;;;4977820;28;20221;-75
2023/03/09 06:31:11;;;;;;;3.13;2.83;;;5.10;99.90;;;;;;4985136;28;20203;-74
2023/03/09 06:33:44;;;;;;;3.88;2.45;;;5.00;99.90;;;;;;5000511;28;20222;-75
2023/03/09 06:36:16;;;;;;;2.90;2.42;;;5.10;99.90;;;;;;4991939;28;20260;-76
2023/03/09 06:38:46;;;;;;;3.20;2.13;;;5.00;99.90;;;;;;4987711;28;20219;-75
2023/03/09 06:41:15;;;;;;;3.20;2.53;;;5.10;99.90;;;;;;4991617;28;20205;-76
2023/03/09 06:43:48;;;;;;;4.07;2.97;;;5.00;99.90;;;;;;4987403;28;20229;-75
2023/03/09 06:46:16;;;;;;;3.13;2.50;;;5.10;99.90;;;;;;4994614;28;20227;-75
2023/03/09 06:48:45;;;;;;;3.17;2.35;;;5.00;99.90;;;;;;4993065;28;20220;-75
2023/03/09 06:51:17;;;;;;;2.20;2.00;;;5.00;99.90;;;;;;4994388;28;20267;-75
2023/03/09 06:53:46;;;;;;;2.75;2.50;;;5.00;99.90;;;;;;4999467;28;20771;-76
2023/03/09 06:56:18;;;;;;;2.88;1.90;;;5.00;99.90;;;;;;4980590;28;20204;-74
2023/03/09 06:58:47;;;;;;;3.13;2.35;;;5.00;99.90;;;;;;4993805;28;20247;-75
2023/03/09 07:01:17;;;;;;;2.70;2.10;;;5.00;99.90;;;;;;4992677;28;20201;-74
2023/03/09 07:03:46;;;;;;;2.85;2.55;;;5.00;99.90;;;;;;4992213;28;20590;-75
2023/03/09 07:06:16;;;;;;;3.70;2.75;;;5.10;99.90;;;;;;4984769;28;20209;-74
2023/03/09 07:08:45;;;;;;;3.83;2.40;;;5.10;99.90;;;;;;4979503;28;20261;-74
2023/03/09 07:11:13;;;;;;;3.33;2.45;;;5.00;99.90;;;;;;4983174;28;20204;-75
2023/03/09 07:13:42;;;;;;;3.30;2.70;;;5.10;99.90;;;;;;4998645;28;20228;-76
2023/03/09 07:16:10;;;;;;;2.90;1.90;;;5.00;99.90;;;;;;4997261;28;20221;-75
2023/03/09 07:18:39;;;;;;;3.58;2.28;;;5.10;99.90;;;;;;4979095;28;20275;-75
2023/03/09 07:21:09;;;;;;;2.95;2.22;;;5.00;99.90;;;;;;4993886;28;20256;-75
2023/03/09 07:23:39;;;;;;;2.47;1.92;;;5.10;99.90;;;;;;4994540;28;20219;-75
2023/03/09 07:26:08;;;;;;;3.85;2.65;;;5.00;99.90;;;;;;4997649;28;20212;-75
2023/03/09 07:28:37;;;;;;;2.85;2.30;;;5.00;99.90;;;;;;4977392;28;20229;-74
2023/03/09 07:31:10;;;;;;;3.67;2.50;;;5.10;99.90;;;;;;4974203;28;20208;-75
2023/03/09 07:33:39;;;;;;;4.22;2.65;;;5.00;99.90;;;;;;4974018;28;20223;-76
2023/03/09 07:36:09;;;;;;;3.28;2.47;;;5.10;99.90;;;;;;4992829;28;20197;-74
2023/03/09 07:38:39;;;;;;;4.18;3.05;;;5.00;99.90;;;;;;4992224;28;20286;-75
2023/03/09 07:41:08;;;;;;;3.25;2.53;;;5.00;99.90;;;;;;4998673;28;20203;-76
2023/03/09 07:43:43;;;;;;;3.20;2.40;;;5.10;99.90;;;;;;4994613;28;20252;-75
2023/03/09 07:46:26;;;;;;;2.90;2.05;;;5.00;99.90;;;;;;5000186;28;20196;-75
2023/03/09 07:48:55;;;;;;;2.53;1.75;;;5.00;99.90;;;;;;4997674;28;20240;-75
2023/03/09 07:51:23;;;;;;;2.60;2.10;;;5.10;99.90;;;;;;4993197;28;20286;-75
2023/03/09 07:53:53;;;;;;;2.65;1.60;;;5.10;99.90;;;;;;4983105;28;20253;-75
2023/03/09 07:56:22;;;;;;;2.70;2.05;;;5.00;99.90;;;;;;4994892;28;20671;-75
2023/03/09 07:58:53;;;;;;;2.78;2.05;;;5.00;99.90;;;;;;4998589;28;20327;-75
2023/03/09 08:01:21;;;;;;;3.72;2.50;;;5.00;99.90;;;;;;4996068;28;20210;-75
2023/03/09 08:03:50;;;;;;;3.00;2.38;;;5.10;99.90;;;;;;4976665;28;20218;-75
2023/03/09 08:06:19;;;;;;;2.20;1.92;;;5.10;99.90;;;;;;4986108;28;20201;-75
2023/03/09 08:08:47;;;;;;;3.08;2.17;;;5.00;99.90;;;;;;4995998;28;20705;-75
2023/03/09 08:11:17;;;;;;;3.38;2.42;;;5.00;99.90;;;;;;4982390;28;20200;-75
2023/03/09 08:13:46;;;;;;;2.95;2.20;;;5.00;99.90;;;;;;5002290;28;20590;-75
2023/03/09 08:16:14;;;;;;;2.60;2.40;;;5.10;99.90;;;;;;4999276;28;20211;-76
2023/03/09 08:18:43;;;;;;;2.40;2.20;;;5.10;99.90;;;;;;4992860;28;20233;-74
2023/03/09 08:21:13;;;;;;;2.63;2.33;;;5.10;99.90;;;;;;5000883;28;20205;-75
2023/03/09 08:23:43;;;;;;;2.40;2.20;;;5.00;99.90;;;;;;4984529;28;20689;-75
2023/03/09 08:26:13;;;;;;;4.45;2.83;;;5.00;99.90;;;;;;5002274;28;20572;-74
2023/03/09 08:28:44;;;;;;;2.65;2.30;;;5.10;99.90;;;;;;4988598;28;20255;-75
2023/03/09 08:31:16;;;;;;;3.28;2.13;;;5.10;99.90;;;;;;4988316;28;20205;-75
2023/03/09 08:33:45;;;;;;;2.42;1.80;;;5.00;99.90;;;;;;4986579;28;20569;-75
2023/03/09 08:36:16;;;;;;;2.38;2.13;;;5.00;99.90;;;;;;4979096;28;20220;-75
2023/03/09 08:38:46;;;;;;;2.22;1.80;;;5.00;99.90;;;;;;4995144;28;20229;-75
2023/03/09 08:41:15;;;;;;;3.50;2.20;;;5.10;99.90;;;;;;5001004;28;20557;-75
2023/03/09 08:43:45;;;;;;;3.60;2.03;;;5.00;99.90;;;;;;4972947;28;20216;-75
2023/03/09 08:46:14;;;;;;;1.92;1.67;;;5.10;99.90;;;;;;4996799;28;20563;-74
2023/03/09 08:48:42;;;;;;;3.08;2.05;;;5.10;99.90;;;;;;4969448;28;20251;-75
2023/03/09 08:51:11;;;;;;;3.03;2.10;;;5.00;99.90;;;;;;4999506;28;20251;-74
2023/03/09 08:53:40;;;;;;;2.30;2.08;;;5.10;99.90;;;;;;4974701;28;20331;-75
2023/03/09 08:56:10;;;;;;;2.35;1.80;;;5.10;99.90;;;;;;4985423;28;20561;-76
2023/03/09 08:58:39;;;;;;;2.25;2.05;;;5.10;99.90;;;;;;5002706;28;20324;-74
2023/03/09 09:01:10;;;;;;;2.53;1.80;;;5.10;99.90;;;;;;4977925;28;20201;-75
2023/03/09 09:03:39;;;;;;;1.90;1.60;;;5.10;99.90;;;;;;4999820;28;20618;-75
2023/03/09 09:06:10;;;;;;;2.70;2.20;;;5.00;99.90;;;;;;4986266;28;20237;-75
2023/03/09 09:08:39;;;;;;;2.45;1.92;;;5.00;99.90;;;;;;4984241;28;20217;-75
2023/03/09 09:11:08;;;;;;;2.55;1.67;;;5.00;99.90;;;;;;4997668;28;20201;-75
2023/03/09 09:13:38;;;;;;;2.70;2.00;;;5.10;99.90;;;;;;5001386;28;20216;-76
2023/03/09 09:16:07;;;;;;;2.33;1.90;;;5.10;99.90;;;;;;4979304;28;20213;-76
2023/03/09 09:18:38;;;;;;;1.63;1.52;;;5.10;99.90;;;;;;4997799;28;20223;-75
2023/03/09 09:21:11;;;;;;;1.92;1.60;;;5.10;99.90;;;;;;4991264;28;20452;-76
2023/03/09 09:23:41;;;;;;;1.98;1.65;;;5.10;99.90;;;;;;5002124;28;20743;-76
2023/03/09 09:26:11;;;;;;;2.97;2.20;;;5.10;99.90;;;;;;4984668;28;20930;-75
2023/03/09 09:28:40;;;;;;;3.35;1.95;;;5.10;99.90;;;;;;4994941;28;20229;-75
2023/03/09 09:31:12;;;;;;;2.35;1.88;;;5.10;99.90;;;;;;4988686;28;20191;-75
2023/03/09 09:33:43;;;;;;;2.92;1.55;;;5.10;99.90;;;;;;5000529;28;20221;-75
2023/03/09 09:36:14;;;;;;;2.75;2.55;;;5.10;99.90;;;;;;4989441;28;20239;-74
2023/03/09 09:38:43;;;;;;;2.42;1.65;;;5.10;99.90;;;;;;4984422;28;20710;-74
2023/03/09 09:41:18;;;;;;;1.80;1.65;;;5.10;99.90;;;;;;4996487;28;20201;-75
2023/03/09 09:43:50;;;;;;;3.22;3.03;;;5.10;99.90;;;;;;4978043;28;20231;-75
2023/03/09 09:46:20;;;;;;;1.75;1.58;;;5.10;99.90;;;;;;4991432;28;20193;-75
2023/03/09 09:48:51;;;;;;;2.05;1.58;;;5.10;99.90;;;;;;4999086;28;20225;-75
2023/03/09 09:51:42;;;;;;;2.08;1.60;;;5.10;99.90;;;;;;5001861;28;20247;-74
2023/03/09 09:54:19;;;;;;;1.60;1.45;;;5.10;99.90;;;;;;4995090;28;20700;-75
2023/03/09 09:56:50;;;;;;;1.50;1.35;;;5.10;99.90;;;;;;4998799;28;20707;-76
2023/03/09 09:59:25;;;;;;;1.63;1.50;;;5.10;99.90;;;;;;4992063;28;20208;-75
2023/03/09 10:02:02;;;;;;;1.83;1.65;;;5.10;99.90;;;;;;4984357;28;20582;-75
2023/03/09 10:04:38;;;;;;;2.17;1.67;;;5.10;99.90;;;;;;4981101;28;20197;-76
2023/03/09 10:07:15;;;;;;;2.58;1.77;;;5.10;99.90;;;;;;4981394;28;20322;-75
2023/03/09 10:09:51;;;;;;;1.67;1.25;;;5.10;99.90;;;;;;4998942;28;20204;-75
2023/03/09 10:12:21;;;;;;;2.15;1.75;;;5.10;99.90;;;;;;5000582;28;20231;-75
2023/03/09 10:14:54;;;;;;;2.90;1.90;;;5.10;99.90;;;;;;4996798;28;20231;-74
2023/03/09 10:17:29;;;;;;;1.42;1.20;;;5.10;99.90;;;;;;4996037;28;20707;-75
2023/03/09 10:20:06;;;;;;;3.15;1.67;;;5.10;99.90;;;;;;4985886;28;20263;-74
2023/03/09 10:22:34;;;;;;;1.52;1.42;;;5.10;99.90;;;;;;4981399;28;20228;-74
2023/03/09 10:25:11;;;;;;;2.03;1.67;;;5.10;99.90;;;;;;4972899;28;20216;-76
2023/03/09 10:27:44;;;;;;;1.35;1.25;;;5.10;99.90;;;;;;4983724;28;20775;-74
2023/03/09 10:30:22;;;;;;;1.92;1.40;;;5.10;99.90;;;;;;4993473;28;20197;-75
2023/03/09 10:32:57;;;;;;;1.75;1.42;;;5.10;99.90;;;;;;4982326;28;20228;-75
2023/03/09 10:35:32;;;;;;;1.95;1.58;;;5.10;99.90;;;;;;4978173;28;20215;-75
2023/03/09 10:38:00;;;;;;;1.77;1.50;;;5.10;99.90;;;;;;5001065;28;20230;-74
2023/03/09 10:40:32;;;;;;;2.28;1.75;;;5.10;99.90;;;;;;4994564;28;20311;-75
2023/03/09 10:43:01;;;;;;;1.77;1.65;;;5.10;99.90;;;;;;5000376;28;20274;-74
2023/03/09 10:45:31;;;;;;;2.90;1.30;;;5.10;99.90;;;;;;4981670;28;20713;-75
2023/03/09 10:48:02;;;;;;;2.17;1.80;;;5.10;99.90;;;;;;4995969;28;20271;-74
2023/03/09 10:50:35;;;;;;;2.65;1.98;;;5.10;99.90;;;;;;4993913;28;20251;-75
2023/03/09 10:53:32;;;;;;;2.03;1.50;;;5.10;99.90;;;;;;4990292;28;20224;-75
2023/03/09 10:56:13;;;;;;;3.42;2.08;;;5.10;99.90;;;;;;4989042;28;20192;-75
2023/03/09 10:58:42;;;;;;;2.75;1.85;;;5.10;99.90;;;;;;4973670;28;20227;-75
2023/03/09 11:01:27;;;;;;;2.50;1.85;;;5.10;99.90;;;;;;4986238;28;20201;-74
2023/03/09 11:03:56;;;;;;;2.47;1.90;;;5.10;99.90;;;;;;4978086;28;20221;-75
2023/03/09 11:06:37;;;;;;;1.95;1.50;;;5.10;99.90;;;;;;4984021;28;20225;-74
2023/03/09 11:09:14;;;;;;;2.00;1.73;;;5.10;99.90;;;;;;4968168;28;20240;-76
2023/03/09 11:11:46;;;;;;;2.70;1.88;;;5.10;99.90;;;;;;4993011;28;20213;-76
2023/03/09 11:14:26;;;;;;;1.70;1.60;;;5.10;99.90;;;;;;4994443;28;20692;-75
2023/03/09 11:16:57;;;;;;;1.58;1.48;;;5.10;99.90;;;;;;4987416;28;20891;-73
2023/03/09 11:19:27;;;;;;;1.80;1.55;;;5.10;99.90;;;;;;4993404;28;20232;-76
2023/03/09 11:22:05;;;;;;;1.77;1.30;;;5.10;99.90;;;;;;4979052;28;20297;-74
2023/03/09 11:24:39;;;;;;;1.70;1.50;;;5.10;99.90;;;;;;4980868;28;20220;-74
2023/03/09 11:27:12;;;;;;;2.38;1.90;;;5.10;99.90;;;;;;4987392;28;20291;-75
2023/03/09 11:29:50;;;;;;;1.52;1.27;;;5.10;99.90;;;;;;4971805;28;20296;-75
2023/03/09 11:32:18;;;;;;;2.10;1.40;;;5.10;99.90;;;;;;5002771;28;20222;-74
2023/03/09 11:34:49;;;;;;;1.67;1.58;;;5.10;99.90;;;;;;4982833;28;20275;-75
2023/03/09 11:37:23;;;;;;;1.65;1.30;;;5.10;99.90;;;;;;5000650;28;20308;-76
2023/03/09 11:39:57;;;;;;;1.95;1.60;;;5.10;99.90;;;;;;4999162;28;20352;-74
2023/03/09 11:42:34;;;;;;;1.55;1.38;;;5.10;99.90;;;;;;4999861;28;20228;-75
2023/03/09 11:45:05;;;;;;;3.15;2.00;;;5.10;99.90;;;;;;5001081;28;20192;-75
2023/03/09 11:47:38;;;;;;;2.10;1.42;;;5.10;99.90;;;;;;5004447;28;20590;-74
2023/03/09 11:50:14;;;;;;;1.65;1.42;;;5.10;99.90;;;;;;5005045;28;20713;-75
2023/03/09 11:52:48;;;;;;;1.75;1.27;;;5.20;99.90;;;;;;4983590;28;20602;-74
2023/03/09 11:55:20;;;;;;;1.80;1.35;;;5.10;99.90;;;;;;4979629;28;20236;-74
2023/03/09 11:57:52;;;;;;;1.42;1.20;;;5.20;99.90;;;;;;5000179;28;20327;-76
2023/03/09 12:00:23;;;;;;;2.50;1.50;;;5.10;99.90;;;;;;4994665;28;20239;-75
2023/03/09 12:02:59;;;;;;;2.22;1.45;;;5.10;99.90;;;;;;5002392;28;20216;-75
2023/03/09 12:05:34;;;;;;;1.33;1.17;;;5.10;99.90;;;;;;4979327;28;20657;-74
2023/03/09 12:08:07;;;;;;;1.75;1.00;;;5.20;99.90;;;;;;4978815;28;20306;-75
2023/03/09 12:10:40;;;;;;;1.52;1.20;;;5.20;99.90;;;;;;5003076;28;20871;-74
2023/03/09 12:13:15;;;;;;;2.63;1.90;;;5.20;99.90;;;;;;4985329;28;20275;-75
2023/03/09 12:15:51;;;;;;;1.42;1.15;;;5.20;99.90;;;;;;4992936;28;20217;-75
2023/03/09 12:18:22;;;;;;;1.20;1.10;;;5.20;99.90;;;;;;4994807;28;20791;-75
2023/03/09 12:20:53;;;;;;;1.88;1.58;;;5.20;99.90;;;;;;4979349;28;20701;-75
2023/03/09 12:23:50;;;;;;;1.67;1.20;;;5.20;99.90;;;;;;4982050;28;20792;-76
2023/03/09 12:26:28;;;;;;;1.88;1.45;;;5.20;99.90;;;;;;4976884;28;20225;-75
2023/03/09 12:29:05;;;;;;;1.77;1.58;;;5.20;99.90;;;;;;5000086;28;20221;-75
2023/03/09 12:31:36;;;;;;;1.42;1.00;;;5.20;99.90;;;;;;4980958;28;20192;-73
2023/03/09 12:34:27;;;;;;;2.00;1.70;;;5.20;99.90;;;;;;5003362;28;20234;-75
2023/03/09 12:37:33;;;;;;;2.08;1.73;;;5.20;99.90;;;;;;5000145;28;20315;-75
2023/03/09 12:40:20;;;;;;;1.23;1.10;;;5.20;99.90;;;;;;4958329;28;20224;-74
2023/03/09 12:42:50;;;;;;;1.50;1.30;;;5.20;99.90;;;;;;5000544;28;20732;-74
2023/03/09 12:45:30;;;;;;;1.60;1.50;;;5.20;99.90;;;;;;4983461;28;20248;-74
2023/03/09 12:48:04;;;;;;;1.60;1.20;;;5.20;99.90;;;;;;4986646;28;20224;-73
2023/03/09 12:50:49;;;;;;;1.50;1.40;;;5.20;99.90;;;;;;4977537;28;20208;-75
2023/03/09 12:53:18;;;;;;;1.70;1.30;;;5.20;99.90;;;;;;4998708;28;20286;-75
2023/03/09 12:55:50;;;;;;;2.40;1.40;;;5.20;99.90;;;;;;4989695;28;20303;-76
2023/03/09 12:58:42;;;;;;;1.77;1.65;;;5.20;99.90;;;;;;4985731;28;20713;-74
2023/03/09 13:01:12;;;;;;;1.83;1.60;;;5.20;99.90;;;;;;4994086;28;20509;-74
2023/03/09 13:03:44;;;;;;;1.38;1.23;;;5.20;99.90;;;;;;4992166;28;20788;-74
2023/03/09 13:06:27;;;;;;;2.05;1.10;;;5.20;99.90;;;;;;4999929;28;20232;-74
2023/03/09 13:08:58;;;;;;;1.90;1.42;;;5.20;99.90;;;;;;4998528;28;20647;-74
2023/03/09 13:11:36;;;;;;;1.83;1.67;;;5.20;99.90;;;;;;4995552;28;20696;-74
2023/03/09 13:14:10;;;;;;;2.00;1.58;;;5.30;99.90;;;;;;4985862;28;20650;-74
2023/03/09 13:16:48;;;;;;;1.80;1.63;;;5.20;99.90;;;;;;4980631;28;20224;-74
2023/03/09 13:19:51;;;;;;;3.08;1.58;;;5.20;99.90;;;;;;5000171;28;20229;-75
2023/03/09 13:22:23;;;;;;;3.95;1.42;;;5.20;99.90;;;;;;4999758;28;20287;-76